sensor_id;sensor_type;location;lat;lon;timestamp;P1;durP1;ratioP1;P2;durP2;ratioP2
70744;SDS011;59284;31.390;34.904;2022-07-10T00:00:48;34.97;;;14.65;;
70744;SDS011;59284;31.390;34.904;2022-07-10T00:03:14;19.97;;;12.03;;
70744;SDS011;59284;31.390;34.904;2022-07-10T00:05:40;26.90;;;13.93;;
70744;SDS011;59284;31.390;34.904;2022-07-10T00:08:08;24.00;;;13.85;;
70744;SDS011;59284;31.390;34.904;2022-07-10T00:10:54;24.93;;;12.30;;
70744;SDS011;59284;31.390;34.904;2022-07-10T00:13:21;23.02;;;13.20;;
70744;SDS011;59284;31.390;34.904;2022-07-10T00:15:48;27.63;;;14.73;;
70744;SDS011;59284;31.390;34.904;2022-07-10T00:18:16;31.15;;;13.90;;
70744;SDS011;59284;31.390;34.904;2022-07-10T00:20:41;21.57;;;13.33;;
70744;SDS011;59284;31.390;34.904;2022-07-10T00:23:08;27.42;;;14.80;;
70744;SDS011;59284;31.390;34.904;2022-07-10T00:25:34;24.92;;;13.50;;
70744;SDS011;59284;31.390;34.904;2022-07-10T00:28:00;30.17;;;15.23;;
70744;SDS011;59284;31.390;34.904;2022-07-10T00:30:25;25.63;;;14.77;;
70744;SDS011;59284;31.390;34.904;2022-07-10T00:32:51;25.75;;;15.05;;
70744;SDS011;59284;31.390;34.904;2022-07-10T00:35:17;31.53;;;13.50;;
70744;SDS011;59284;31.390;34.904;2022-07-10T00:37:43;23.50;;;13.90;;
70744;SDS011;59284;31.390;34.904;2022-07-10T00:40:12;30.95;;;14.07;;
70744;SDS011;59284;31.390;34.904;2022-07-10T00:42:38;26.97;;;12.50;;
70744;SDS011;59284;31.390;34.904;2022-07-10T00:45:06;20.67;;;12.82;;
70744;SDS011;59284;31.390;34.904;2022-07-10T00:47:32;25.83;;;14.02;;
70744;SDS011;59284;31.390;34.904;2022-07-10T00:49:58;26.63;;;13.30;;
70744;SDS011;59284;31.390;34.904;2022-07-10T00:52:24;26.40;;;13.73;;
70744;SDS011;59284;31.390;34.904;2022-07-10T00:54:50;26.75;;;13.65;;
70744;SDS011;59284;31.390;34.904;2022-07-10T00:57:23;22.77;;;13.43;;
70744;SDS011;59284;31.390;34.904;2022-07-10T00:59:50;29.52;;;13.80;;
70744;SDS011;59284;31.390;34.904;2022-07-10T01:02:18;27.87;;;14.53;;
70744;SDS011;59284;31.390;34.904;2022-07-10T01:04:43;23.20;;;13.85;;
70744;SDS011;59284;31.390;34.904;2022-07-10T01:07:09;25.88;;;13.77;;
70744;SDS011;59284;31.390;34.904;2022-07-10T01:09:35;30.63;;;14.37;;
70744;SDS011;59284;31.390;34.904;2022-07-10T01:12:02;24.75;;;14.05;;
70744;SDS011;59284;31.390;34.904;2022-07-10T01:14:29;27.30;;;14.45;;
70744;SDS011;59284;31.390;34.904;2022-07-10T01:17:01;21.08;;;12.93;;
70744;SDS011;59284;31.390;34.904;2022-07-10T01:19:36;26.20;;;13.38;;
70744;SDS011;59284;31.390;34.904;2022-07-10T01:22:05;24.03;;;12.57;;
70744;SDS011;59284;31.390;34.904;2022-07-10T01:24:31;19.10;;;11.63;;
70744;SDS011;59284;31.390;34.904;2022-07-10T01:26:57;20.40;;;11.82;;
70744;SDS011;59284;31.390;34.904;2022-07-10T01:29:23;23.67;;;12.63;;
70744;SDS011;59284;31.390;34.904;2022-07-10T01:31:50;22.95;;;12.93;;
70744;SDS011;59284;31.390;34.904;2022-07-10T01:34:16;22.60;;;11.83;;
70744;SDS011;59284;31.390;34.904;2022-07-10T01:36:44;19.23;;;13.05;;
70744;SDS011;59284;31.390;34.904;2022-07-10T01:39:14;24.98;;;13.65;;
70744;SDS011;59284;31.390;34.904;2022-07-10T01:41:46;19.77;;;11.80;;
70744;SDS011;59284;31.390;34.904;2022-07-10T01:44:25;20.80;;;12.47;;
70744;SDS011;59284;31.390;34.904;2022-07-10T01:46:52;28.10;;;12.32;;
70744;SDS011;59284;31.390;34.904;2022-07-10T01:49:18;26.45;;;12.20;;
70744;SDS011;59284;31.390;34.904;2022-07-10T01:51:44;23.70;;;12.77;;
70744;SDS011;59284;31.390;34.904;2022-07-10T01:54:10;21.10;;;13.40;;
70744;SDS011;59284;31.390;34.904;2022-07-10T01:56:36;24.58;;;13.77;;
70744;SDS011;59284;31.390;34.904;2022-07-10T01:59:03;25.77;;;13.80;;
70744;SDS011;59284;31.390;34.904;2022-07-10T02:01:29;21.73;;;13.10;;
70744;SDS011;59284;31.390;34.904;2022-07-10T02:03:56;25.52;;;13.93;;
70744;SDS011;59284;31.390;34.904;2022-07-10T02:06:40;30.63;;;14.65;;
70744;SDS011;59284;31.390;34.904;2022-07-10T02:09:06;24.98;;;14.40;;
70744;SDS011;59284;31.390;34.904;2022-07-10T02:11:32;25.07;;;14.33;;
70744;SDS011;59284;31.390;34.904;2022-07-10T02:13:58;24.42;;;14.50;;
70744;SDS011;59284;31.390;34.904;2022-07-10T02:16:23;26.27;;;16.20;;
70744;SDS011;59284;31.390;34.904;2022-07-10T02:18:49;31.55;;;14.43;;
70744;SDS011;59284;31.390;34.904;2022-07-10T02:21:15;27.60;;;14.57;;
70744;SDS011;59284;31.390;34.904;2022-07-10T02:26:38;30.55;;;15.98;;
70744;SDS011;59284;31.390;34.904;2022-07-10T02:29:04;30.40;;;16.25;;
70744;SDS011;59284;31.390;34.904;2022-07-10T02:31:31;35.10;;;16.92;;
70744;SDS011;59284;31.390;34.904;2022-07-10T02:34:00;35.47;;;16.77;;
70744;SDS011;59284;31.390;34.904;2022-07-10T02:36:29;38.08;;;17.20;;
70744;SDS011;59284;31.390;34.904;2022-07-10T02:38:58;33.90;;;17.48;;
70744;SDS011;59284;31.390;34.904;2022-07-10T02:41:29;32.25;;;17.90;;
70744;SDS011;59284;31.390;34.904;2022-07-10T02:43:57;31.55;;;16.38;;
70744;SDS011;59284;31.390;34.904;2022-07-10T02:46:24;35.53;;;17.07;;
70744;SDS011;59284;31.390;34.904;2022-07-10T02:48:50;30.70;;;17.10;;
70744;SDS011;59284;31.390;34.904;2022-07-10T02:51:16;32.85;;;17.33;;
70744;SDS011;59284;31.390;34.904;2022-07-10T02:53:42;30.50;;;17.17;;
70744;SDS011;59284;31.390;34.904;2022-07-10T02:56:09;34.17;;;17.85;;
70744;SDS011;59284;31.390;34.904;2022-07-10T02:58:37;30.65;;;16.17;;
70744;SDS011;59284;31.390;34.904;2022-07-10T03:01:04;39.15;;;17.38;;
70744;SDS011;59284;31.390;34.904;2022-07-10T03:03:30;35.03;;;17.00;;
70744;SDS011;59284;31.390;34.904;2022-07-10T03:05:57;28.05;;;16.58;;
70744;SDS011;59284;31.390;34.904;2022-07-10T03:08:23;29.70;;;16.83;;
70744;SDS011;59284;31.390;34.904;2022-07-10T03:10:49;28.92;;;15.95;;
70744;SDS011;59284;31.390;34.904;2022-07-10T03:13:15;34.03;;;17.90;;
70744;SDS011;59284;31.390;34.904;2022-07-10T03:15:40;33.35;;;16.90;;
70744;SDS011;59284;31.390;34.904;2022-07-10T03:18:06;34.73;;;15.40;;
70744;SDS011;59284;31.390;34.904;2022-07-10T03:20:32;29.10;;;16.10;;
70744;SDS011;59284;31.390;34.904;2022-07-10T03:22:58;27.87;;;15.77;;
70744;SDS011;59284;31.390;34.904;2022-07-10T03:25:23;26.48;;;16.10;;
70744;SDS011;59284;31.390;34.904;2022-07-10T03:27:49;26.65;;;16.50;;
70744;SDS011;59284;31.390;34.904;2022-07-10T03:30:15;29.33;;;16.10;;
70744;SDS011;59284;31.390;34.904;2022-07-10T03:32:41;25.33;;;15.40;;
70744;SDS011;59284;31.390;34.904;2022-07-10T03:35:08;33.08;;;17.40;;
70744;SDS011;59284;31.390;34.904;2022-07-10T03:37:34;32.07;;;16.83;;
70744;SDS011;59284;31.390;34.904;2022-07-10T03:39:59;30.60;;;16.70;;
70744;SDS011;59284;31.390;34.904;2022-07-10T03:42:25;30.17;;;17.30;;
70744;SDS011;59284;31.390;34.904;2022-07-10T03:44:51;27.88;;;15.85;;
70744;SDS011;59284;31.390;34.904;2022-07-10T03:47:18;26.45;;;16.42;;
70744;SDS011;59284;31.390;34.904;2022-07-10T03:49:44;34.17;;;15.23;;
70744;SDS011;59284;31.390;34.904;2022-07-10T03:52:09;29.52;;;17.45;;
70744;SDS011;59284;31.390;34.904;2022-07-10T03:54:35;29.57;;;16.33;;
70744;SDS011;59284;31.390;34.904;2022-07-10T03:57:02;32.40;;;16.23;;
70744;SDS011;59284;31.390;34.904;2022-07-10T03:59:47;34.05;;;16.85;;
70744;SDS011;59284;31.390;34.904;2022-07-10T04:02:13;31.17;;;17.35;;
70744;SDS011;59284;31.390;34.904;2022-07-10T04:04:39;30.03;;;15.90;;
70744;SDS011;59284;31.390;34.904;2022-07-10T04:07:04;32.45;;;16.88;;
70744;SDS011;59284;31.390;34.904;2022-07-10T04:09:31;30.63;;;14.80;;
70744;SDS011;59284;31.390;34.904;2022-07-10T04:11:57;24.15;;;14.45;;
70744;SDS011;59284;31.390;34.904;2022-07-10T04:14:23;25.00;;;15.20;;
70744;SDS011;59284;31.390;34.904;2022-07-10T04:16:49;22.65;;;14.10;;
70744;SDS011;59284;31.390;34.904;2022-07-10T04:19:17;25.10;;;12.83;;
70744;SDS011;59284;31.390;34.904;2022-07-10T04:21:43;23.90;;;13.25;;
70744;SDS011;59284;31.390;34.904;2022-07-10T04:24:09;25.77;;;14.15;;
70744;SDS011;59284;31.390;34.904;2022-07-10T04:26:35;23.90;;;12.87;;
70744;SDS011;59284;31.390;34.904;2022-07-10T04:29:00;25.35;;;13.13;;
70744;SDS011;59284;31.390;34.904;2022-07-10T04:31:27;23.10;;;13.50;;
70744;SDS011;59284;31.390;34.904;2022-07-10T04:33:53;21.37;;;12.70;;
70744;SDS011;59284;31.390;34.904;2022-07-10T04:36:20;22.55;;;12.65;;
70744;SDS011;59284;31.390;34.904;2022-07-10T04:38:46;19.53;;;13.37;;
70744;SDS011;59284;31.390;34.904;2022-07-10T04:41:12;22.88;;;13.70;;
70744;SDS011;59284;31.390;34.904;2022-07-10T04:43:37;19.17;;;12.63;;
70744;SDS011;59284;31.390;34.904;2022-07-10T04:46:03;21.33;;;12.38;;
70744;SDS011;59284;31.390;34.904;2022-07-10T04:48:29;21.35;;;13.00;;
70744;SDS011;59284;31.390;34.904;2022-07-10T04:50:55;20.10;;;11.43;;
70744;SDS011;59284;31.390;34.904;2022-07-10T04:53:25;23.13;;;12.70;;
70744;SDS011;59284;31.390;34.904;2022-07-10T04:56:05;16.77;;;11.68;;
70744;SDS011;59284;31.390;34.904;2022-07-10T04:58:31;20.33;;;11.98;;
70744;SDS011;59284;31.390;34.904;2022-07-10T05:00:56;17.73;;;11.37;;
70744;SDS011;59284;31.390;34.904;2022-07-10T05:03:22;19.48;;;10.82;;
70744;SDS011;59284;31.390;34.904;2022-07-10T05:05:48;19.00;;;11.23;;
70744;SDS011;59284;31.390;34.904;2022-07-10T05:08:15;16.03;;;10.70;;
70744;SDS011;59284;31.390;34.904;2022-07-10T05:10:41;15.95;;;10.13;;
70744;SDS011;59284;31.390;34.904;2022-07-10T05:13:06;18.67;;;11.23;;
70744;SDS011;59284;31.390;34.904;2022-07-10T05:15:32;16.80;;;10.00;;
70744;SDS011;59284;31.390;34.904;2022-07-10T05:17:58;15.82;;;10.52;;
70744;SDS011;59284;31.390;34.904;2022-07-10T05:20:24;17.40;;;9.67;;
70744;SDS011;59284;31.390;34.904;2022-07-10T05:22:49;15.30;;;8.98;;
70744;SDS011;59284;31.390;34.904;2022-07-10T05:25:15;13.53;;;9.17;;
70744;SDS011;59284;31.390;34.904;2022-07-10T05:27:41;13.85;;;10.65;;
70744;SDS011;59284;31.390;34.904;2022-07-10T05:30:07;13.70;;;10.63;;
70744;SDS011;59284;31.390;34.904;2022-07-10T05:32:33;17.63;;;10.07;;
70744;SDS011;59284;31.390;34.904;2022-07-10T05:34:59;13.43;;;10.13;;
70744;SDS011;59284;31.390;34.904;2022-07-10T05:37:25;18.87;;;10.10;;
70744;SDS011;59284;31.390;34.904;2022-07-10T05:39:51;11.60;;;9.25;;
70744;SDS011;59284;31.390;34.904;2022-07-10T05:42:16;16.02;;;9.98;;
70744;SDS011;59284;31.390;34.904;2022-07-10T05:44:42;14.27;;;7.90;;
70744;SDS011;59284;31.390;34.904;2022-07-10T05:47:08;15.80;;;8.45;;
70744;SDS011;59284;31.390;34.904;2022-07-10T05:49:34;11.37;;;8.37;;
70744;SDS011;59284;31.390;34.904;2022-07-10T05:52:03;14.30;;;9.60;;
70744;SDS011;59284;31.390;34.904;2022-07-10T05:54:30;14.77;;;8.65;;
70744;SDS011;59284;31.390;34.904;2022-07-10T05:56:57;12.30;;;8.38;;
70744;SDS011;59284;31.390;34.904;2022-07-10T05:59:26;12.88;;;9.07;;
70744;SDS011;59284;31.390;34.904;2022-07-10T06:01:52;13.57;;;8.83;;
70744;SDS011;59284;31.390;34.904;2022-07-10T06:04:18;14.73;;;9.15;;
70744;SDS011;59284;31.390;34.904;2022-07-10T06:06:52;15.07;;;8.83;;
70744;SDS011;59284;31.390;34.904;2022-07-10T06:09:18;12.32;;;8.48;;
70744;SDS011;59284;31.390;34.904;2022-07-10T06:11:44;12.07;;;8.15;;
70744;SDS011;59284;31.390;34.904;2022-07-10T06:14:11;14.20;;;7.70;;
70744;SDS011;59284;31.390;34.904;2022-07-10T06:16:37;11.68;;;7.32;;
70744;SDS011;59284;31.390;34.904;2022-07-10T06:19:03;12.98;;;7.95;;
70744;SDS011;59284;31.390;34.904;2022-07-10T06:21:29;11.77;;;7.33;;
70744;SDS011;59284;31.390;34.904;2022-07-10T06:23:55;10.57;;;6.18;;
70744;SDS011;59284;31.390;34.904;2022-07-10T06:26:20;14.38;;;6.90;;
70744;SDS011;59284;31.390;34.904;2022-07-10T06:28:46;9.57;;;6.50;;
70744;SDS011;59284;31.390;34.904;2022-07-10T06:31:12;8.70;;;5.88;;
70744;SDS011;59284;31.390;34.904;2022-07-10T06:33:38;10.90;;;6.20;;
70744;SDS011;59284;31.390;34.904;2022-07-10T06:36:04;10.37;;;5.70;;
70744;SDS011;59284;31.390;34.904;2022-07-10T06:38:33;13.82;;;6.72;;
70744;SDS011;59284;31.390;34.904;2022-07-10T06:40:59;13.73;;;7.20;;
70744;SDS011;59284;31.390;34.904;2022-07-10T06:43:25;8.85;;;5.90;;
70744;SDS011;59284;31.390;34.904;2022-07-10T06:45:50;9.40;;;6.50;;
70744;SDS011;59284;31.390;34.904;2022-07-10T06:48:16;11.50;;;6.10;;
70744;SDS011;59284;31.390;34.904;2022-07-10T06:50:42;9.37;;;6.43;;
70744;SDS011;59284;31.390;34.904;2022-07-10T06:53:08;10.13;;;5.95;;
70744;SDS011;59284;31.390;34.904;2022-07-10T06:55:34;10.90;;;6.43;;
70744;SDS011;59284;31.390;34.904;2022-07-10T06:58:00;9.63;;;6.13;;
70744;SDS011;59284;31.390;34.904;2022-07-10T07:00:26;11.98;;;6.97;;
70744;SDS011;59284;31.390;34.904;2022-07-10T07:02:52;12.90;;;7.03;;
70744;SDS011;59284;31.390;34.904;2022-07-10T07:05:18;13.40;;;6.77;;
70744;SDS011;59284;31.390;34.904;2022-07-10T07:07:43;8.30;;;5.37;;
70744;SDS011;59284;31.390;34.904;2022-07-10T07:10:10;9.23;;;5.45;;
70744;SDS011;59284;31.390;34.904;2022-07-10T07:12:36;8.15;;;5.20;;
70744;SDS011;59284;31.390;34.904;2022-07-10T07:15:02;6.43;;;4.67;;
70744;SDS011;59284;31.390;34.904;2022-07-10T07:17:29;6.47;;;4.20;;
70744;SDS011;59284;31.390;34.904;2022-07-10T07:20:11;7.43;;;5.03;;
70744;SDS011;59284;31.390;34.904;2022-07-10T07:22:56;7.00;;;5.15;;
70744;SDS011;59284;31.390;34.904;2022-07-10T07:25:35;9.98;;;5.40;;
70744;SDS011;59284;31.390;34.904;2022-07-10T07:28:01;8.73;;;4.70;;
70744;SDS011;59284;31.390;34.904;2022-07-10T07:30:28;11.30;;;5.78;;
70744;SDS011;59284;31.390;34.904;2022-07-10T07:32:53;8.38;;;4.88;;
70744;SDS011;59284;31.390;34.904;2022-07-10T07:35:19;7.10;;;5.03;;
70744;SDS011;59284;31.390;34.904;2022-07-10T07:37:45;13.00;;;5.15;;
70744;SDS011;59284;31.390;34.904;2022-07-10T07:40:16;8.65;;;5.18;;
70744;SDS011;59284;31.390;34.904;2022-07-10T07:42:46;8.27;;;4.63;;
70744;SDS011;59284;31.390;34.904;2022-07-10T07:45:12;8.88;;;4.80;;
70744;SDS011;59284;31.390;34.904;2022-07-10T07:47:54;8.35;;;5.47;;
70744;SDS011;59284;31.390;34.904;2022-07-10T07:50:22;7.85;;;4.20;;
70744;SDS011;59284;31.390;34.904;2022-07-10T07:52:54;9.40;;;4.78;;
70744;SDS011;59284;31.390;34.904;2022-07-10T07:55:20;7.70;;;4.27;;
70744;SDS011;59284;31.390;34.904;2022-07-10T07:57:47;7.50;;;4.80;;
70744;SDS011;59284;31.390;34.904;2022-07-10T08:00:16;9.75;;;5.00;;
70744;SDS011;59284;31.390;34.904;2022-07-10T08:02:45;13.65;;;5.18;;
70744;SDS011;59284;31.390;34.904;2022-07-10T08:05:10;10.77;;;5.17;;
70744;SDS011;59284;31.390;34.904;2022-07-10T08:07:38;10.50;;;4.78;;
70744;SDS011;59284;31.390;34.904;2022-07-10T08:10:16;7.85;;;4.45;;
70744;SDS011;59284;31.390;34.904;2022-07-10T08:12:43;6.88;;;4.22;;
70744;SDS011;59284;31.390;34.904;2022-07-10T08:15:12;12.75;;;4.70;;
70744;SDS011;59284;31.390;34.904;2022-07-10T08:17:39;12.53;;;5.33;;
70744;SDS011;59284;31.390;34.904;2022-07-10T08:20:05;12.05;;;4.93;;
70744;SDS011;59284;31.390;34.904;2022-07-10T08:22:32;7.90;;;4.75;;
70744;SDS011;59284;31.390;34.904;2022-07-10T08:24:59;7.20;;;4.88;;
70744;SDS011;59284;31.390;34.904;2022-07-10T08:27:25;14.83;;;5.17;;
70744;SDS011;59284;31.390;34.904;2022-07-10T08:29:51;12.82;;;5.53;;
70744;SDS011;59284;31.390;34.904;2022-07-10T08:32:16;8.45;;;4.80;;
70744;SDS011;59284;31.390;34.904;2022-07-10T08:34:42;8.40;;;4.67;;
70744;SDS011;59284;31.390;34.904;2022-07-10T08:37:08;7.40;;;4.32;;
70744;SDS011;59284;31.390;34.904;2022-07-10T08:39:34;8.48;;;4.80;;
70744;SDS011;59284;31.390;34.904;2022-07-10T08:42:00;12.70;;;4.23;;
70744;SDS011;59284;31.390;34.904;2022-07-10T08:44:30;8.35;;;4.25;;
70744;SDS011;59284;31.390;34.904;2022-07-10T08:46:56;10.95;;;4.30;;
70744;SDS011;59284;31.390;34.904;2022-07-10T08:49:29;9.00;;;4.68;;
70744;SDS011;59284;31.390;34.904;2022-07-10T08:52:03;8.17;;;4.30;;
70744;SDS011;59284;31.390;34.904;2022-07-10T08:54:32;9.10;;;3.33;;
70744;SDS011;59284;31.390;34.904;2022-07-10T08:57:01;13.65;;;3.75;;
70744;SDS011;59284;31.390;34.904;2022-07-10T08:59:28;6.93;;;3.58;;
70744;SDS011;59284;31.390;34.904;2022-07-10T09:01:55;9.15;;;3.58;;
70744;SDS011;59284;31.390;34.904;2022-07-10T09:04:21;10.83;;;3.47;;
70744;SDS011;59284;31.390;34.904;2022-07-10T09:06:48;8.68;;;3.15;;
70744;SDS011;59284;31.390;34.904;2022-07-10T09:09:14;13.73;;;4.22;;
70744;SDS011;59284;31.390;34.904;2022-07-10T09:11:40;9.65;;;3.55;;
70744;SDS011;59284;31.390;34.904;2022-07-10T09:14:08;9.13;;;4.30;;
70744;SDS011;59284;31.390;34.904;2022-07-10T09:16:39;7.85;;;2.58;;
70744;SDS011;59284;31.390;34.904;2022-07-10T09:19:22;8.90;;;3.33;;
70744;SDS011;59284;31.390;34.904;2022-07-10T09:21:50;7.28;;;2.88;;
70744;SDS011;59284;31.390;34.904;2022-07-10T09:24:19;9.77;;;3.35;;
70744;SDS011;59284;31.390;34.904;2022-07-10T09:26:48;4.97;;;2.63;;
70744;SDS011;59284;31.390;34.904;2022-07-10T09:29:26;8.18;;;3.15;;
70744;SDS011;59284;31.390;34.904;2022-07-10T09:31:53;8.23;;;3.70;;
70744;SDS011;59284;31.390;34.904;2022-07-10T09:37:21;8.75;;;3.30;;
70744;SDS011;59284;31.390;34.904;2022-07-10T09:40:00;9.07;;;3.53;;
70744;SDS011;59284;31.390;34.904;2022-07-10T09:42:31;7.10;;;3.53;;
70744;SDS011;59284;31.390;34.904;2022-07-10T09:47:39;7.05;;;3.20;;
70744;SDS011;59284;31.390;34.904;2022-07-10T09:50:25;7.95;;;2.75;;
70744;SDS011;59284;31.390;34.904;2022-07-10T09:52:59;7.17;;;3.33;;
70744;SDS011;59284;31.390;34.904;2022-07-10T09:55:28;10.02;;;2.83;;
70744;SDS011;59284;31.390;34.904;2022-07-10T09:57:59;8.48;;;3.10;;
70744;SDS011;59284;31.390;34.904;2022-07-10T10:00:27;7.95;;;3.20;;
70744;SDS011;59284;31.390;34.904;2022-07-10T10:03:01;7.03;;;2.80;;
70744;SDS011;59284;31.390;34.904;2022-07-10T10:05:36;4.00;;;2.57;;
70744;SDS011;59284;31.390;34.904;2022-07-10T10:08:12;8.13;;;3.47;;
70744;SDS011;59284;31.390;34.904;2022-07-10T10:10:49;7.63;;;3.15;;
70744;SDS011;59284;31.390;34.904;2022-07-10T10:13:18;8.77;;;3.40;;
70744;SDS011;59284;31.390;34.904;2022-07-10T10:15:51;7.03;;;3.20;;
70744;SDS011;59284;31.390;34.904;2022-07-10T10:18:20;6.37;;;2.67;;
70744;SDS011;59284;31.390;34.904;2022-07-10T10:20:48;6.75;;;3.22;;
70744;SDS011;59284;31.390;34.904;2022-07-10T10:23:16;7.95;;;3.28;;
70744;SDS011;59284;31.390;34.904;2022-07-10T10:25:46;7.80;;;3.60;;
70744;SDS011;59284;31.390;34.904;2022-07-10T10:28:14;11.90;;;3.13;;
70744;SDS011;59284;31.390;34.904;2022-07-10T10:30:45;9.00;;;4.07;;
70744;SDS011;59284;31.390;34.904;2022-07-10T10:36:07;8.65;;;3.92;;
70744;SDS011;59284;31.390;34.904;2022-07-10T10:41:27;7.57;;;3.10;;
70744;SDS011;59284;31.390;34.904;2022-07-10T10:49:19;6.93;;;3.40;;
70744;SDS011;59284;31.390;34.904;2022-07-10T10:51:59;10.55;;;3.22;;
70744;SDS011;59284;31.390;34.904;2022-07-10T10:54:27;8.75;;;3.33;;
70744;SDS011;59284;31.390;34.904;2022-07-10T11:02:48;7.50;;;3.47;;
70744;SDS011;59284;31.390;34.904;2022-07-10T11:05:52;9.50;;;3.78;;
70744;SDS011;59284;31.390;34.904;2022-07-10T11:08:41;7.10;;;3.60;;
70744;SDS011;59284;31.390;34.904;2022-07-10T11:13:58;9.00;;;3.90;;
70744;SDS011;59284;31.390;34.904;2022-07-10T11:16:27;9.82;;;4.10;;
70744;SDS011;59284;31.390;34.904;2022-07-10T11:19:02;9.88;;;4.32;;
70744;SDS011;59284;31.390;34.904;2022-07-10T11:21:28;12.63;;;4.07;;
70744;SDS011;59284;31.390;34.904;2022-07-10T11:24:17;10.57;;;4.00;;
70744;SDS011;59284;31.390;34.904;2022-07-10T11:30:24;10.75;;;3.42;;
70744;SDS011;59284;31.390;34.904;2022-07-10T11:32:51;8.40;;;3.90;;
70744;SDS011;59284;31.390;34.904;2022-07-10T11:35:20;7.82;;;3.70;;
70744;SDS011;59284;31.390;34.904;2022-07-10T11:37:58;8.27;;;3.30;;
70744;SDS011;59284;31.390;34.904;2022-07-10T11:40:36;8.20;;;3.05;;
70744;SDS011;59284;31.390;34.904;2022-07-10T11:43:02;9.35;;;3.65;;
70744;SDS011;59284;31.390;34.904;2022-07-10T11:45:34;10.90;;;3.08;;
70744;SDS011;59284;31.390;34.904;2022-07-10T11:48:07;13.55;;;3.88;;
70744;SDS011;59284;31.390;34.904;2022-07-10T11:51:21;7.80;;;3.00;;
70744;SDS011;59284;31.390;34.904;2022-07-10T11:56:52;8.20;;;2.97;;
70744;SDS011;59284;31.390;34.904;2022-07-10T11:59:51;7.80;;;3.08;;
70744;SDS011;59284;31.390;34.904;2022-07-10T12:02:40;8.32;;;2.58;;
70744;SDS011;59284;31.390;34.904;2022-07-10T12:05:43;11.77;;;2.37;;
70744;SDS011;59284;31.390;34.904;2022-07-10T12:08:15;9.98;;;2.65;;
70744;SDS011;59284;31.390;34.904;2022-07-10T12:10:42;8.73;;;2.67;;
70744;SDS011;59284;31.390;34.904;2022-07-10T12:13:29;9.85;;;2.20;;
70744;SDS011;59284;31.390;34.904;2022-07-10T12:15:56;10.38;;;2.40;;
70744;SDS011;59284;31.390;34.904;2022-07-10T12:19:03;7.73;;;2.40;;
70744;SDS011;59284;31.390;34.904;2022-07-10T12:21:40;8.30;;;2.03;;
70744;SDS011;59284;31.390;34.904;2022-07-10T12:24:16;6.75;;;2.38;;
70744;SDS011;59284;31.390;34.904;2022-07-10T12:26:49;9.27;;;2.22;;
70744;SDS011;59284;31.390;34.904;2022-07-10T12:29:23;7.00;;;2.25;;
70744;SDS011;59284;31.390;34.904;2022-07-10T12:32:23;9.77;;;2.37;;
70744;SDS011;59284;31.390;34.904;2022-07-10T12:35:05;9.23;;;2.10;;
70744;SDS011;59284;31.390;34.904;2022-07-10T12:38:22;8.32;;;2.70;;
70744;SDS011;59284;31.390;34.904;2022-07-10T12:41:05;8.93;;;2.20;;
70744;SDS011;59284;31.390;34.904;2022-07-10T12:43:51;13.02;;;2.85;;
70744;SDS011;59284;31.390;34.904;2022-07-10T12:46:19;11.37;;;2.50;;
70744;SDS011;59284;31.390;34.904;2022-07-10T12:49:05;10.50;;;2.58;;
70744;SDS011;59284;31.390;34.904;2022-07-10T12:51:46;9.30;;;2.10;;
70744;SDS011;59284;31.390;34.904;2022-07-10T12:57:02;12.60;;;2.75;;
70744;SDS011;59284;31.390;34.904;2022-07-10T12:59:34;6.63;;;1.97;;
70744;SDS011;59284;31.390;34.904;2022-07-10T13:02:20;6.57;;;2.40;;
70744;SDS011;59284;31.390;34.904;2022-07-10T13:04:52;8.00;;;2.15;;
70744;SDS011;59284;31.390;34.904;2022-07-10T13:07:28;9.93;;;2.60;;
70744;SDS011;59284;31.390;34.904;2022-07-10T13:09:55;8.55;;;2.60;;
70744;SDS011;59284;31.390;34.904;2022-07-10T13:12:24;10.03;;;2.53;;
70744;SDS011;59284;31.390;34.904;2022-07-10T13:15:02;15.05;;;2.50;;
70744;SDS011;59284;31.390;34.904;2022-07-10T13:17:29;9.90;;;2.33;;
70744;SDS011;59284;31.390;34.904;2022-07-10T13:19:57;8.57;;;2.47;;
70744;SDS011;59284;31.390;34.904;2022-07-10T13:22:29;8.32;;;2.60;;
70744;SDS011;59284;31.390;34.904;2022-07-10T13:24:57;8.67;;;2.90;;
70744;SDS011;59284;31.390;34.904;2022-07-10T13:27:27;14.18;;;2.45;;
70744;SDS011;59284;31.390;34.904;2022-07-10T13:29:56;14.45;;;2.90;;
70744;SDS011;59284;31.390;34.904;2022-07-10T13:32:27;11.45;;;2.55;;
70744;SDS011;59284;31.390;34.904;2022-07-10T13:35:23;8.80;;;2.50;;
70744;SDS011;59284;31.390;34.904;2022-07-10T13:38:08;11.15;;;2.60;;
70744;SDS011;59284;31.390;34.904;2022-07-10T13:40:56;11.35;;;2.20;;
70744;SDS011;59284;31.390;34.904;2022-07-10T13:43:23;14.82;;;2.97;;
70744;SDS011;59284;31.390;34.904;2022-07-10T13:46:02;15.35;;;2.92;;
70744;SDS011;59284;31.390;34.904;2022-07-10T13:48:33;14.70;;;2.80;;
70744;SDS011;59284;31.390;34.904;2022-07-10T13:51:01;14.40;;;2.55;;
70744;SDS011;59284;31.390;34.904;2022-07-10T13:53:37;11.80;;;2.60;;
70744;SDS011;59284;31.390;34.904;2022-07-10T13:56:06;16.20;;;2.55;;
70744;SDS011;59284;31.390;34.904;2022-07-10T13:58:53;9.80;;;2.95;;
70744;SDS011;59284;31.390;34.904;2022-07-10T14:01:26;10.13;;;2.50;;
70744;SDS011;59284;31.390;34.904;2022-07-10T14:04:19;9.65;;;2.60;;
70744;SDS011;59284;31.390;34.904;2022-07-10T14:06:48;13.68;;;3.65;;
70744;SDS011;59284;31.390;34.904;2022-07-10T14:09:13;11.40;;;2.60;;
70744;SDS011;59284;31.390;34.904;2022-07-10T14:11:56;14.13;;;2.90;;
70744;SDS011;59284;31.390;34.904;2022-07-10T14:15:13;11.93;;;2.88;;
70744;SDS011;59284;31.390;34.904;2022-07-10T14:17:46;12.70;;;2.83;;
70744;SDS011;59284;31.390;34.904;2022-07-10T14:20:14;12.40;;;2.87;;
70744;SDS011;59284;31.390;34.904;2022-07-10T14:22:46;8.80;;;2.73;;
70744;SDS011;59284;31.390;34.904;2022-07-10T14:25:12;12.82;;;2.80;;
70744;SDS011;59284;31.390;34.904;2022-07-10T14:27:42;11.95;;;2.60;;
70744;SDS011;59284;31.390;34.904;2022-07-10T14:30:08;16.33;;;3.35;;
70744;SDS011;59284;31.390;34.904;2022-07-10T14:32:35;12.82;;;3.15;;
70744;SDS011;59284;31.390;34.904;2022-07-10T14:35:07;12.77;;;3.40;;
70744;SDS011;59284;31.390;34.904;2022-07-10T14:37:39;12.15;;;2.80;;
70744;SDS011;59284;31.390;34.904;2022-07-10T14:40:05;11.25;;;3.22;;
70744;SDS011;59284;31.390;34.904;2022-07-10T14:42:31;14.43;;;2.95;;
70744;SDS011;59284;31.390;34.904;2022-07-10T14:45:03;13.40;;;2.67;;
70744;SDS011;59284;31.390;34.904;2022-07-10T14:47:35;10.40;;;3.00;;
70744;SDS011;59284;31.390;34.904;2022-07-10T14:50:02;14.25;;;3.03;;
70744;SDS011;59284;31.390;34.904;2022-07-10T14:52:39;11.73;;;3.03;;
70744;SDS011;59284;31.390;34.904;2022-07-10T14:55:05;15.83;;;2.93;;
70744;SDS011;59284;31.390;34.904;2022-07-10T14:57:32;9.60;;;2.95;;
70744;SDS011;59284;31.390;34.904;2022-07-10T14:59:58;8.90;;;2.75;;
70744;SDS011;59284;31.390;34.904;2022-07-10T15:02:24;12.30;;;2.70;;
70744;SDS011;59284;31.390;34.904;2022-07-10T15:04:50;10.98;;;3.30;;
70744;SDS011;59284;31.390;34.904;2022-07-10T15:07:16;14.20;;;4.20;;
70744;SDS011;59284;31.390;34.904;2022-07-10T15:09:43;14.30;;;3.27;;
70744;SDS011;59284;31.390;34.904;2022-07-10T15:12:10;7.57;;;2.72;;
70744;SDS011;59284;31.390;34.904;2022-07-10T15:14:36;19.00;;;3.83;;